Time;durP1;ratioP1;P1;durP2;ratioP2;P2;SDS_P1;SDS_P2;PMS_P1;PMS_P2;Temp;Humidity;BMP_temperature;BMP_pressure;BME280_temperature;BME280_humidity;BME280_pressure;Samples;Min_cycle;Max_cycle;Signal;HPM_P1;HPM_P2
2023/01/14 00:02:00;;;;;;;47.60;5.43;;;6.80;99.90;;;;;;4968666;28;20031;-69
2023/01/14 00:04:26;;;;;;;45.25;6.00;;;6.80;99.90;;;;;;4955566;28;20031;-69
2023/01/14 00:06:51;;;;;;;40.50;4.60;;;6.80;99.90;;;;;;4956253;28;20086;-69
2023/01/14 00:09:17;;;;;;;38.53;5.60;;;6.70;99.90;;;;;;4968896;28;20030;-69
2023/01/14 00:11:51;;;;;;;51.40;5.70;;;6.70;99.90;;;;;;4974429;28;20034;-69
2023/01/14 00:14:18;;;;;;;33.65;5.13;;;6.80;99.90;;;;;;4974811;28;20026;-69
2023/01/14 00:16:45;;;;;;;47.00;5.25;;;6.80;99.90;;;;;;4963196;28;20027;-69
2023/01/14 00:19:11;;;;;;;52.78;5.22;;;6.90;99.90;;;;;;4955020;28;20051;-69
2023/01/14 00:21:37;;;;;;;46.45;5.15;;;6.80;99.90;;;;;;4965716;28;20026;-69
2023/01/14 00:24:03;;;;;;;36.05;6.40;;;6.80;99.90;;;;;;4974451;28;20113;-69
2023/01/14 00:26:28;;;;;;;60.63;6.63;;;6.80;99.90;;;;;;4970013;28;20118;-69
2023/01/14 00:28:54;;;;;;;37.95;4.40;;;6.70;99.90;;;;;;4974376;28;20047;-69
2023/01/14 00:31:22;;;;;;;50.75;6.00;;;6.70;99.90;;;;;;4974157;28;20019;-69
2023/01/14 00:33:48;;;;;;;49.33;6.78;;;6.70;99.90;;;;;;4974349;28;20487;-69
2023/01/14 00:36:16;;;;;;;51.45;5.80;;;6.80;99.90;;;;;;4974613;28;20514;-69
2023/01/14 00:38:42;;;;;;;42.63;5.93;;;6.80;99.90;;;;;;4974487;28;20026;-69
2023/01/14 00:41:09;;;;;;;45.00;6.53;;;6.80;99.90;;;;;;4974613;28;20491;-69
2023/01/14 00:43:36;;;;;;;58.42;5.95;;;6.80;99.90;;;;;;4972463;28;20031;-69
2023/01/14 00:46:07;;;;;;;59.03;6.57;;;6.90;99.90;;;;;;4974197;28;20030;-69
2023/01/14 00:48:33;;;;;;;58.00;6.07;;;6.90;99.90;;;;;;4974455;28;20046;-69
2023/01/14 00:50:59;;;;;;;59.13;7.30;;;6.90;99.90;;;;;;4972600;28;20113;-69
2023/01/14 00:53:25;;;;;;;51.80;6.22;;;6.90;99.90;;;;;;4974174;28;20512;-69
2023/01/14 00:55:50;;;;;;;59.60;6.82;;;6.80;99.90;;;;;;4961722;28;20383;-69
2023/01/14 00:58:16;;;;;;;40.22;4.97;;;6.80;99.90;;;;;;4964480;28;20033;-69
2023/01/14 01:00:42;;;;;;;36.22;4.93;;;6.70;99.90;;;;;;4974137;28;20034;-69
2023/01/14 01:03:08;;;;;;;42.85;4.88;;;6.70;99.90;;;;;;4973995;28;20030;-69
2023/01/14 01:05:35;;;;;;;24.55;3.45;;;6.60;99.90;;;;;;4973893;28;20023;-69
2023/01/14 01:08:03;;;;;;;30.60;3.97;;;6.50;99.90;;;;;;4973918;28;20046;-69
2023/01/14 01:10:29;;;;;;;41.30;5.03;;;6.50;99.90;;;;;;4976444;28;20422;-69
2023/01/14 01:12:55;;;;;;;37.25;4.05;;;6.50;99.90;;;;;;4977673;28;20030;-69
2023/01/14 01:15:20;;;;;;;26.52;3.15;;;6.40;99.90;;;;;;4977760;28;20023;-69
2023/01/14 01:17:46;;;;;;;39.33;6.07;;;6.40;99.90;;;;;;4977121;28;20027;-69
2023/01/14 01:20:11;;;;;;;34.47;5.15;;;6.30;99.90;;;;;;4977823;28;20467;-69
2023/01/14 01:22:37;;;;;;;39.53;3.78;;;6.20;99.90;;;;;;4977533;28;20023;-69
2023/01/14 01:25:02;;;;;;;43.20;4.70;;;6.30;99.90;;;;;;4977662;28;20554;-69
2023/01/14 01:27:28;;;;;;;39.65;5.57;;;6.40;99.90;;;;;;4977260;28;20042;-69
2023/01/14 01:29:53;;;;;;;30.23;4.35;;;6.40;99.90;;;;;;4976127;28;20026;-69
2023/01/14 01:32:19;;;;;;;44.47;5.22;;;6.50;99.90;;;;;;4976558;28;20502;-69
2023/01/14 01:34:45;;;;;;;44.70;6.20;;;6.50;99.90;;;;;;4960289;28;20031;-69
2023/01/14 01:37:10;;;;;;;46.75;6.70;;;6.60;99.90;;;;;;4967427;28;20033;-69
2023/01/14 01:39:36;;;;;;;46.78;6.00;;;6.70;99.90;;;;;;4977196;28;20034;-69
2023/01/14 01:42:01;;;;;;;43.65;5.18;;;6.70;99.90;;;;;;4972581;28;20096;-69
2023/01/14 01:44:27;;;;;;;52.58;5.85;;;6.70;99.90;;;;;;4957752;28;20031;-69
2023/01/14 01:46:53;;;;;;;62.88;7.30;;;6.70;99.90;;;;;;4957745;28;20027;-69
2023/01/14 01:49:22;;;;;;;47.75;5.47;;;6.80;99.90;;;;;;4957634;28;20082;-69
2023/01/14 01:52:14;;;;;;;48.90;6.28;;;6.80;99.90;;;;;;4966323;28;20111;-69
2023/01/14 01:54:46;;;;;;;65.38;7.05;;;6.80;99.90;;;;;;4977267;28;20497;-69
2023/01/14 01:57:13;;;;;;;53.17;6.88;;;6.80;99.90;;;;;;4974127;28;20042;-69
2023/01/14 01:59:44;;;;;;;55.60;7.47;;;6.80;99.90;;;;;;4968910;28;20026;-69
2023/01/14 02:02:11;;;;;;;44.58;6.18;;;6.90;99.90;;;;;;4976886;28;20031;-69
2023/01/14 02:04:37;;;;;;;52.05;5.95;;;6.90;99.90;;;;;;4976963;28;20027;-69
2023/01/14 02:07:02;;;;;;;58.22;6.18;;;6.90;99.90;;;;;;4975074;28;20022;-69
2023/01/14 02:09:28;;;;;;;51.35;6.18;;;6.90;99.90;;;;;;4976081;28;20248;-69
2023/01/14 02:12:15;;;;;;;49.25;5.57;;;6.90;99.90;;;;;;4970103;28;20094;-69
2023/01/14 02:14:43;;;;;;;45.13;6.03;;;6.80;99.90;;;;;;4957566;28;20019;-69
2023/01/14 02:17:30;;;;;;;53.38;6.13;;;6.70;99.90;;;;;;4972549;28;20026;-69
2023/01/14 02:20:18;;;;;;;49.38;7.82;;;6.70;99.90;;;;;;5043902;23;20054;-68
2023/01/14 02:22:52;;;;;;;49.38;5.45;;;6.70;99.90;;;;;;4975845;28;20487;-68
2023/01/14 02:25:51;;;;;;;65.78;8.13;;;6.60;99.90;;;;;;4976500;28;20066;-68
2023/01/14 02:28:55;;;;;;;56.53;5.68;;;6.60;99.90;;;;;;4976439;28;20502;-68
2023/01/14 02:31:27;;;;;;;;;;;6.50;99.90;;;;;;4961602;28;20049;-68
2023/01/14 02:34:12;;;;;;;47.17;6.05;;;6.60;99.90;;;;;;4976469;28;19913;-68
2023/01/14 02:36:50;;;;;;;51.65;5.63;;;6.60;99.90;;;;;;4976337;28;20070;-68
2023/01/14 02:39:31;;;;;;;46.05;5.75;;;6.60;99.90;;;;;;4976243;28;20077;-68
2023/01/14 02:45:16;;;;;;;49.20;6.78;;;6.60;99.90;;;;;;4976157;28;20082;-67
2023/01/14 02:47:43;;;;;;;35.35;5.03;;;6.60;99.90;;;;;;4976506;28;20019;-67
2023/01/14 02:50:11;;;;;;;59.03;5.78;;;6.60;99.90;;;;;;4975992;28;20015;-68
2023/01/14 02:52:37;;;;;;;35.55;4.75;;;6.70;99.90;;;;;;4976060;28;20050;-68
2023/01/14 02:55:27;;;;;;;52.15;4.65;;;6.70;99.90;;;;;;4976011;28;20502;-67
2023/01/14 02:57:58;;;;;;;50.33;4.68;;;6.70;99.90;;;;;;4976465;28;20094;-67
2023/01/14 03:00:55;;;;;;;43.30;4.63;;;6.60;99.90;;;;;;4973671;28;20030;-68
2023/01/14 03:03:41;;;;;;;45.50;5.30;;;6.50;99.90;;;;;;4975740;28;20146;-68
2023/01/14 03:06:22;;;;;;;46.67;4.68;;;6.50;99.90;;;;;;4972817;28;20078;-67
2023/01/14 03:09:06;;;;;;;60.20;5.82;;;6.40;99.90;;;;;;4956954;28;20026;-68
2023/01/14 03:11:40;;;;;;;45.47;6.07;;;6.40;99.90;;;;;;4956698;28;20394;-67
2023/01/14 03:14:15;;;;;;;49.25;4.18;;;6.30;99.90;;;;;;4956972;28;20038;-68
2023/01/14 03:16:46;;;;;;;41.83;5.75;;;6.30;99.90;;;;;;4957683;28;20035;-68
2023/01/14 03:19:18;;;;;;;43.58;6.53;;;6.20;99.90;;;;;;4975059;28;20101;-68
2023/01/14 03:21:49;;;;;;;45.30;4.50;;;6.20;99.90;;;;;;4964705;28;20106;-67
2023/01/14 03:24:35;;;;;;;47.97;5.50;;;6.20;99.90;;;;;;4956147;28;20071;-68
2023/01/14 03:27:06;;;;;;;55.83;6.38;;;6.20;99.90;;;;;;4964846;28;20391;-68
2023/01/14 03:29:38;;;;;;;50.50;6.50;;;6.10;99.90;;;;;;4975550;28;20027;-67
2023/01/14 03:32:32;;;;;;;41.53;6.60;;;6.20;99.90;;;;;;4970961;28;20398;-67
2023/01/14 03:35:07;;;;;;;44.38;6.07;;;6.20;99.90;;;;;;4952935;29;20042;-67
2023/01/14 03:37:34;;;;;;;45.97;5.53;;;6.20;99.90;;;;;;4971271;28;20023;-68
2023/01/14 03:40:03;;;;;;;59.65;5.72;;;6.30;99.90;;;;;;4956245;28;20036;-67
2023/01/14 03:42:36;;;;;;;41.25;4.53;;;6.30;99.90;;;;;;4955806;28;20050;-67
2023/01/14 03:45:15;;;;;;;40.80;4.40;;;6.40;99.90;;;;;;4973305;28;20035;-68
2023/01/14 03:47:42;;;;;;;40.92;4.50;;;6.50;99.90;;;;;;4975319;28;20349;-67
2023/01/14 03:50:12;;;;;;;53.25;5.82;;;6.50;99.90;;;;;;4980201;23;20060;-67
2023/01/14 03:53:02;;;;;;;34.03;4.43;;;6.50;99.90;;;;;;4974965;28;20395;-68
2023/01/14 03:55:39;;;;;;;51.92;6.28;;;6.50;99.90;;;;;;4975055;28;20460;-68
2023/01/14 03:58:10;;;;;;;37.15;4.25;;;6.40;99.90;;;;;;4966780;28;20038;-67
2023/01/14 04:00:51;;;;;;;44.75;6.13;;;6.40;99.90;;;;;;4969914;28;20114;-67
2023/01/14 04:03:18;;;;;;;43.25;5.13;;;6.40;99.90;;;;;;4972954;28;20038;-67
2023/01/14 04:05:44;;;;;;;42.72;5.32;;;6.30;99.90;;;;;;4974795;28;20117;-68
2023/01/14 04:08:10;;;;;;;58.85;5.78;;;6.30;99.90;;;;;;4972646;28;20051;-68
2023/01/14 04:10:36;;;;;;;52.47;7.40;;;6.40;99.90;;;;;;4974795;28;20025;-67
2023/01/14 04:15:46;;;;;;;37.92;4.82;;;6.50;99.90;;;;;;4955718;29;20031;-67
2023/01/14 04:18:11;;;;;;;54.38;5.18;;;6.50;99.90;;;;;;4958307;28;20014;-67
2023/01/14 04:20:37;;;;;;;32.72;5.47;;;6.40;99.90;;;;;;4973522;28;20023;-67
2023/01/14 04:23:02;;;;;;;40.88;3.67;;;6.40;99.90;;;;;;4974800;28;20452;-67
2023/01/14 04:25:28;;;;;;;40.20;3.63;;;6.40;99.90;;;;;;4970355;28;20047;-67
2023/01/14 04:27:53;;;;;;;25.75;3.63;;;6.40;99.90;;;;;;4955272;28;20098;-67
2023/01/14 04:30:19;;;;;;;20.63;2.65;;;6.40;99.90;;;;;;4955156;28;20030;-67
2023/01/14 04:32:46;;;;;;;27.05;2.80;;;6.40;99.90;;;;;;4955193;28;20030;-68
2023/01/14 04:35:11;;;;;;;17.67;3.38;;;6.50;99.90;;;;;;4963179;28;20023;-68
2023/01/14 04:37:37;;;;;;;18.15;2.47;;;6.50;99.90;;;;;;4974470;28;20077;-68
2023/01/14 04:40:03;;;;;;;19.70;2.30;;;6.50;99.90;;;;;;4974373;28;20391;-68
2023/01/14 04:42:30;;;;;;;18.85;2.00;;;6.50;99.90;;;;;;4974898;28;20033;-67
2023/01/14 04:44:59;;;;;;;31.77;3.28;;;6.50;99.90;;;;;;4976224;28;20073;-67
2023/01/14 04:47:25;;;;;;;25.95;2.42;;;6.60;99.90;;;;;;4976711;28;20554;-68
2023/01/14 04:49:51;;;;;;;15.65;3.15;;;6.70;99.90;;;;;;4978256;28;20026;-68
2023/01/14 04:52:17;;;;;;;22.52;2.17;;;6.70;99.90;;;;;;4974301;28;20092;-68
2023/01/14 04:54:43;;;;;;;22.30;3.40;;;6.70;99.90;;;;;;4978797;28;20528;-68
2023/01/14 04:57:08;;;;;;;28.70;3.90;;;6.70;99.90;;;;;;4988874;28;20074;-67
2023/01/14 04:59:34;;;;;;;16.45;2.88;;;6.70;99.90;;;;;;4958850;28;20059;-67
2023/01/14 05:02:00;;;;;;;29.30;3.95;;;6.60;99.90;;;;;;4961010;28;20135;-68
2023/01/14 05:04:26;;;;;;;17.38;2.17;;;6.60;99.90;;;;;;4959208;28;20027;-68
2023/01/14 05:06:52;;;;;;;25.27;4.10;;;6.60;99.90;;;;;;4958970;28;20058;-67
2023/01/14 05:09:18;;;;;;;21.85;2.97;;;6.60;99.90;;;;;;4972704;28;20027;-68
2023/01/14 05:11:43;;;;;;;28.27;2.67;;;6.60;99.90;;;;;;4978205;28;20034;-68
2023/01/14 05:14:09;;;;;;;18.88;2.63;;;6.70;99.90;;;;;;4977775;28;20037;-68
2023/01/14 05:16:35;;;;;;;18.30;3.08;;;6.70;99.90;;;;;;4977846;28;20430;-67
2023/01/14 05:19:00;;;;;;;23.70;2.65;;;6.70;99.90;;;;;;4975539;28;20029;-68
2023/01/14 05:21:26;;;;;;;14.98;2.30;;;6.70;99.90;;;;;;4977982;28;20368;-67
2023/01/14 05:23:51;;;;;;;26.02;2.05;;;6.70;99.90;;;;;;4977550;28;20030;-67
2023/01/14 05:26:17;;;;;;;21.85;2.13;;;6.70;99.90;;;;;;4958264;28;20027;-68
2023/01/14 05:28:42;;;;;;;14.93;2.30;;;6.60;99.90;;;;;;4958272;28;20034;-67
2023/01/14 05:31:08;;;;;;;19.33;2.08;;;6.50;99.90;;;;;;4973544;28;20023;-67
2023/01/14 05:33:34;;;;;;;15.95;2.50;;;6.40;99.90;;;;;;4977581;28;20066;-67
2023/01/14 05:36:00;;;;;;;18.30;2.70;;;6.30;99.90;;;;;;4971247;28;20483;-67
2023/01/14 05:38:27;;;;;;;21.15;2.03;;;6.30;99.90;;;;;;4977345;28;20026;-67
2023/01/14 05:40:53;;;;;;;17.45;2.13;;;6.20;99.90;;;;;;4977567;28;20018;-67
2023/01/14 05:46:09;;;;;;;19.02;2.97;;;6.20;99.90;;;;;;4977614;28;20081;-68
2023/01/14 05:48:35;;;;;;;18.77;2.03;;;6.20;99.90;;;;;;4990639;23;20046;-67
2023/01/14 05:51:04;;;;;;;20.95;3.20;;;6.20;99.90;;;;;;5015063;28;20018;-67
2023/01/14 05:53:29;;;;;;;16.75;2.50;;;6.20;99.90;;;;;;5016190;28;20026;-67
2023/01/14 05:55:57;;;;;;;19.77;2.88;;;6.20;99.90;;;;;;5016212;28;20496;-68
2023/01/14 05:58:23;;;;;;;23.10;3.70;;;6.20;99.90;;;;;;5013071;28;20026;-68
2023/01/14 06:06:24;;;;;;;28.67;3.75;;;6.20;99.90;;;;;;4996974;28;20089;-68
2023/01/14 06:09:04;;;;;;;25.58;4.40;;;6.20;99.90;;;;;;4996421;28;20394;-68
2023/01/14 06:11:33;;;;;;;32.28;3.97;;;6.30;99.90;;;;;;4996304;28;20411;-68
2023/01/14 06:14:00;;;;;;;23.80;3.05;;;6.30;99.90;;;;;;4996242;28;20026;-68
2023/01/14 06:16:28;;;;;;;56.35;5.85;;;6.20;99.90;;;;;;4994911;28;20022;-68
2023/01/14 06:18:55;;;;;;;41.20;4.65;;;6.20;99.90;;;;;;4995969;28;20033;-68
2023/01/14 06:21:25;;;;;;;38.10;3.95;;;6.10;99.90;;;;;;4996107;28;20023;-67
2023/01/14 06:23:51;;;;;;;56.35;6.85;;;6.00;99.90;;;;;;4995998;28;20076;-68
2023/01/14 06:26:18;;;;;;;35.60;5.40;;;6.10;99.90;;;;;;4995998;28;20030;-68
2023/01/14 06:28:44;;;;;;;41.00;5.68;;;6.00;99.90;;;;;;4987275;28;20032;-67
2023/01/14 06:31:16;;;;;;;61.00;6.90;;;6.00;99.90;;;;;;4976482;28;20039;-67
2023/01/14 06:33:42;;;;;;;54.45;6.28;;;6.10;99.90;;;;;;4978413;28;20038;-67
2023/01/14 06:36:10;;;;;;;47.45;4.93;;;6.10;99.90;;;;;;4982919;28;20022;-67
2023/01/14 06:38:36;;;;;;;41.78;6.57;;;6.10;99.90;;;;;;4995573;28;20037;-67
2023/01/14 06:41:03;;;;;;;64.32;6.50;;;6.20;99.90;;;;;;4989790;28;20034;-67
2023/01/14 06:43:29;;;;;;;50.78;6.25;;;6.20;99.90;;;;;;4976131;28;20022;-67
2023/01/14 06:45:56;;;;;;;39.75;5.25;;;6.30;99.90;;;;;;4976284;28;20027;-67
2023/01/14 06:48:23;;;;;;;67.70;9.23;;;6.30;99.90;;;;;;5004105;28;20018;-68
2023/01/14 06:50:48;;;;;;;55.20;7.70;;;6.40;99.90;;;;;;4975702;28;20027;-67
2023/01/14 06:53:14;;;;;;;60.65;8.10;;;6.40;99.90;;;;;;4976344;28;20030;-67
2023/01/14 06:55:39;;;;;;;46.60;6.00;;;6.40;99.90;;;;;;4976063;28;20035;-67
2023/01/14 06:58:05;;;;;;;67.57;8.48;;;6.40;99.90;;;;;;4975923;28;20030;-67
2023/01/14 07:00:31;;;;;;;54.72;7.28;;;6.30;99.90;;;;;;4976268;28;20037;-68
2023/01/14 07:02:56;;;;;;;63.03;6.20;;;6.20;99.90;;;;;;4985171;28;20496;-67
2023/01/14 07:05:22;;;;;;;61.67;7.80;;;6.10;99.90;;;;;;4993930;28;20054;-67
2023/01/14 07:07:48;;;;;;;67.40;8.55;;;6.10;99.90;;;;;;4992613;28;20022;-67
2023/01/14 07:10:14;;;;;;;64.65;8.27;;;6.10;99.90;;;;;;4976041;28;20479;-67
2023/01/14 07:12:49;;;;;;;109.18;13.27;;;6.20;99.90;;;;;;4975796;28;20019;-67
2023/01/14 07:15:17;;;;;;;101.07;12.00;;;6.30;99.90;;;;;;4993883;28;20099;-68
2023/01/14 07:17:45;;;;;;;92.13;9.20;;;6.30;99.90;;;;;;4995381;28;20026;-67
2023/01/14 07:20:10;;;;;;;73.65;8.73;;;6.30;99.90;;;;;;4980594;28;20117;-67
2023/01/14 07:22:36;;;;;;;91.10;9.45;;;6.30;99.90;;;;;;4975939;28;20113;-67
2023/01/14 07:25:02;;;;;;;87.18;9.70;;;6.40;99.90;;;;;;4981323;28;20470;-67
2023/01/14 07:27:29;;;;;;;93.97;10.40;;;6.40;99.90;;;;;;4995318;28;20092;-67
2023/01/14 07:29:55;;;;;;;92.97;8.93;;;6.40;99.90;;;;;;4994736;28;20478;-67
2023/01/14 07:32:21;;;;;;;96.47;9.05;;;6.40;99.90;;;;;;4994752;28;20041;-67
2023/01/14 07:34:46;;;;;;;64.43;8.63;;;6.40;99.90;;;;;;4995008;28;20030;-67
2023/01/14 07:37:12;;;;;;;79.53;8.85;;;6.20;99.90;;;;;;4993351;28;20030;-67
2023/01/14 07:39:37;;;;;;;103.72;10.60;;;6.20;99.90;;;;;;4994702;28;20028;-67
2023/01/14 07:42:03;;;;;;;94.43;9.60;;;6.20;99.90;;;;;;4994546;28;20478;-67
2023/01/14 07:44:29;;;;;;;81.72;8.57;;;6.20;99.90;;;;;;4994537;28;20133;-67
2023/01/14 07:46:55;;;;;;;87.22;8.48;;;6.20;99.90;;;;;;4994595;28;20026;-67
2023/01/14 07:49:22;;;;;;;71.75;8.43;;;6.10;99.90;;;;;;4991263;23;20046;-67
2023/01/14 07:51:48;;;;;;;63.40;8.48;;;6.10;99.90;;;;;;4975052;28;20019;-67
2023/01/14 07:54:15;;;;;;;67.35;7.43;;;6.10;99.90;;;;;;4974031;28;20038;-67
2023/01/14 07:56:41;;;;;;;67.65;8.80;;;6.10;99.90;;;;;;4975204;28;20030;-67
2023/01/14 07:59:06;;;;;;;71.15;8.65;;;6.10;99.90;;;;;;4973684;28;20026;-68
2023/01/14 08:01:32;;;;;;;55.90;6.40;;;6.10;99.90;;;;;;4956263;28;20077;-68
2023/01/14 08:03:58;;;;;;;71.03;8.45;;;6.10;99.90;;;;;;4955259;28;20035;-68
2023/01/14 08:06:24;;;;;;;54.72;6.55;;;6.00;99.90;;;;;;4971112;28;20030;-67
2023/01/14 08:08:50;;;;;;;58.55;7.10;;;6.00;99.90;;;;;;4974574;28;20023;-67
2023/01/14 08:11:16;;;;;;;57.00;7.68;;;6.00;99.90;;;;;;4974545;28;20113;-67
2023/01/14 08:13:42;;;;;;;68.00;7.13;;;6.00;99.90;;;;;;4971277;28;20479;-67
2023/01/14 08:16:09;;;;;;;51.20;8.60;;;5.90;99.90;;;;;;4968293;28;20110;-67
2023/01/14 08:18:35;;;;;;;72.75;7.25;;;5.80;99.90;;;;;;4997034;23;20023;31
2023/01/14 08:21:03;;;;;;;39.08;5.25;;;5.80;99.90;;;;;;4988727;28;20097;-69
2023/01/14 08:23:30;;;;;;;51.00;6.75;;;5.80;99.90;;;;;;4974360;28;20035;-69
2023/01/14 08:26:07;;;;;;;71.53;6.60;;;5.70;99.90;;;;;;4974251;28;20045;-69
2023/01/14 08:28:33;;;;;;;74.40;8.68;;;5.70;99.90;;;;;;4974621;28;20027;-70
2023/01/14 08:31:04;;;;;;;60.78;7.10;;;5.60;99.90;;;;;;4974438;28;20508;-70
2023/01/14 08:33:30;;;;;;;58.10;6.90;;;5.60;99.90;;;;;;4974329;28;20034;-69
2023/01/14 08:35:59;;;;;;;65.55;7.32;;;5.60;99.90;;;;;;4974203;28;20058;-70
2023/01/14 08:38:25;;;;;;;56.00;6.85;;;5.60;99.90;;;;;;4974271;28;20398;-70
2023/01/14 08:40:51;;;;;;;60.28;8.27;;;5.60;99.90;;;;;;4974199;28;20035;-70
2023/01/14 08:43:17;;;;;;;56.85;8.38;;;5.50;99.90;;;;;;4974745;28;20147;-70
2023/01/14 08:45:42;;;;;;;52.42;6.40;;;5.50;99.90;;;;;;4974258;28;20503;-70
2023/01/14 08:48:08;;;;;;;56.40;6.90;;;5.50;99.90;;;;;;4974169;28;20031;-70
2023/01/14 08:50:34;;;;;;;53.85;7.20;;;5.50;99.90;;;;;;4974427;28;20151;-69
2023/01/14 08:52:59;;;;;;;56.97;6.47;;;5.50;99.90;;;;;;4970721;28;20073;-70
2023/01/14 08:55:25;;;;;;;55.05;6.35;;;5.50;99.90;;;;;;4954882;29;20035;-69
2023/01/14 08:57:50;;;;;;;61.05;6.75;;;5.50;99.90;;;;;;4955824;28;20073;-69
2023/01/14 09:00:16;;;;;;;42.53;6.15;;;5.50;99.90;;;;;;4973863;28;20070;-69
2023/01/14 09:02:42;;;;;;;84.50;7.90;;;5.60;99.90;;;;;;4973935;28;20166;-69
2023/01/14 09:05:08;;;;;;;58.38;7.55;;;5.60;99.90;;;;;;4960295;28;20023;-69
2023/01/14 09:18:29;;;;;;;;;;;5.80;99.90;;;;;;4974631;28;20454;-69
2023/01/14 09:20:55;;;;;;;40.50;5.32;;;5.90;99.90;;;;;;4973796;28;19918;-70
2023/01/14 09:23:20;;;;;;;58.58;6.00;;;5.90;99.90;;;;;;4973545;28;20093;-69
2023/01/14 09:25:46;;;;;;;40.63;5.95;;;5.90;99.90;;;;;;4973892;28;20030;-69
2023/01/14 09:28:11;;;;;;;39.95;5.18;;;5.90;99.90;;;;;;4974182;28;20026;-69
2023/01/14 09:30:37;;;;;;;60.70;6.20;;;6.00;99.90;;;;;;4974847;28;20076;-70
2023/01/14 09:33:06;;;;;;;34.15;5.18;;;6.00;99.90;;;;;;4972913;28;20031;-70
2023/01/14 09:35:31;;;;;;;41.90;6.78;;;6.00;99.90;;;;;;4958277;28;20034;-70
2023/01/14 09:37:57;;;;;;;42.92;6.57;;;6.10;99.90;;;;;;4957906;29;20394;-70
2023/01/14 09:40:25;;;;;;;38.22;5.40;;;6.10;99.90;;;;;;4956674;28;20031;-70
2023/01/14 09:42:51;;;;;;;38.53;5.28;;;6.10;99.90;;;;;;4971027;28;20077;-69
2023/01/14 09:45:27;;;;;;;39.47;6.72;;;6.10;99.90;;;;;;4977312;28;20038;-70
2023/01/14 09:47:55;;;;;;;22.38;5.35;;;6.10;99.90;;;;;;4976201;28;20057;-69
2023/01/14 09:50:31;;;;;;;29.10;5.68;;;6.10;99.90;;;;;;4977017;28;20029;-70
2023/01/14 09:53:14;;;;;;;50.80;7.30;;;6.10;99.90;;;;;;4960158;28;20075;-70
2023/01/14 09:55:48;;;;;;;42.85;7.78;;;6.10;99.90;;;;;;4957718;28;20098;-69
2023/01/14 09:58:16;;;;;;;;;;;6.10;99.90;;;;;;4973590;28;20503;-70
2023/01/14 10:00:45;;;;;;;46.00;7.32;;;6.10;99.90;;;;;;4976553;28;19906;-70
2023/01/14 10:03:49;;;;;;;43.38;7.47;;;6.10;99.90;;;;;;4974626;28;20491;-70
2023/01/14 10:06:17;;;;;;;57.95;9.27;;;6.10;99.90;;;;;;4976897;28;20027;-70
2023/01/14 10:08:51;;;;;;;57.42;9.13;;;6.10;99.90;;;;;;4973223;28;20027;-71
2023/01/14 10:11:16;;;;;;;;;;;6.10;99.90;;;;;;4977388;28;20031;-69
2023/01/14 10:13:49;;;;;;;46.90;8.00;;;6.10;99.90;;;;;;4968822;28;19914;-70
2023/01/14 10:16:27;;;;;;;53.47;10.05;;;6.10;99.90;;;;;;4957689;28;20379;-71
2023/01/14 10:19:11;;;;;;;29.02;8.20;;;6.10;99.90;;;;;;4957580;28;20027;-71
2023/01/14 10:21:44;;;;;;;39.50;9.75;;;6.10;99.90;;;;;;4957520;29;20415;-70
2023/01/14 10:24:14;;;;;;;;;;;6.10;99.90;;;;;;4957991;28;20031;-70
2023/01/14 10:26:40;;;;;;;53.53;9.40;;;6.10;99.90;;;;;;4976445;28;19906;-70
2023/01/14 10:29:15;;;;;;;47.45;7.65;;;6.20;99.90;;;;;;4976314;28;20427;-70
2023/01/14 10:31:45;;;;;;;62.78;10.13;;;6.20;99.90;;;;;;4976568;28;20078;-70
2023/01/14 10:34:13;;;;;;;53.80;8.77;;;6.20;99.90;;;;;;4976296;28;20026;-70
2023/01/14 10:36:38;;;;;;;41.25;8.85;;;6.20;99.90;;;;;;4976295;28;20037;-70
2023/01/14 10:39:06;;;;;;;36.50;8.90;;;6.20;99.90;;;;;;4976432;28;20026;-70
2023/01/14 10:41:50;;;;;;;51.22;9.65;;;6.20;99.90;;;;;;4975789;28;20035;-70
2023/01/14 10:44:29;;;;;;;50.65;9.98;;;6.20;99.90;;;;;;4975841;28;20027;-70
2023/01/14 10:47:01;;;;;;;41.75;10.02;;;6.10;99.90;;;;;;4976608;28;20046;-69
2023/01/14 10:49:50;;;;;;;42.97;10.55;;;6.10;99.90;;;;;;4975889;28;20054;-70
2023/01/14 10:52:26;;;;;;;54.35;10.52;;;6.20;99.90;;;;;;4975707;28;20049;-71
2023/01/14 10:55:06;;;;;;;55.15;10.60;;;6.10;99.90;;;;;;4974688;28;20034;-69
2023/01/14 10:57:36;;;;;;;44.58;12.45;;;6.10;99.90;;;;;;4967511;28;20031;-71
2023/01/14 11:00:04;;;;;;;47.03;9.68;;;6.20;99.90;;;;;;4956465;28;20019;-70
2023/01/14 11:02:43;;;;;;;58.83;10.95;;;6.20;99.90;;;;;;4956184;28;20506;-70
2023/01/14 11:05:26;;;;;;;55.35;10.60;;;6.10;99.90;;;;;;4956634;28;20031;-70
2023/01/14 11:07:55;;;;;;;51.55;10.82;;;6.10;99.90;;;;;;4955057;28;20023;-70
2023/01/14 11:10:30;;;;;;;64.15;11.43;;;6.10;99.90;;;;;;4956278;28;20023;-70
2023/01/14 11:13:29;;;;;;;62.25;11.10;;;6.10;99.90;;;;;;4956591;28;20023;-70
2023/01/14 11:15:55;;;;;;;51.72;10.15;;;6.10;99.90;;;;;;4955008;28;20027;-70
2023/01/14 11:18:24;;;;;;;48.80;11.35;;;6.10;99.90;;;;;;4955914;28;20078;-70
2023/01/14 11:21:15;;;;;;;49.63;10.68;;;6.10;99.90;;;;;;4955954;28;20156;-70
2023/01/14 11:23:44;;;;;;;60.47;10.90;;;6.00;99.90;;;;;;4956027;28;20399;-70
2023/01/14 11:26:30;;;;;;;55.90;11.15;;;6.10;99.90;;;;;;4970727;28;20042;-70
2023/01/14 11:29:14;;;;;;;47.45;10.63;;;6.10;99.90;;;;;;4975743;28;20486;-69
2023/01/14 11:31:41;;;;;;;54.55;10.90;;;6.10;99.90;;;;;;4975534;28;20110;-69
2023/01/14 11:34:29;;;;;;;47.17;13.43;;;6.10;99.90;;;;;;4975463;28;20033;-70
2023/01/14 11:37:34;;;;;;;63.85;12.70;;;6.00;99.90;;;;;;4974896;28;20054;-70
2023/01/14 11:40:02;;;;;;;50.60;10.98;;;6.00;99.90;;;;;;4975055;28;20053;-70
2023/01/14 11:42:33;;;;;;;60.88;11.60;;;6.00;99.90;;;;;;4975339;28;20041;-70
2023/01/14 11:45:03;;;;;;;63.20;12.35;;;6.00;99.90;;;;;;4974883;28;20093;-70
2023/01/14 11:47:30;;;;;;;65.90;13.52;;;6.10;99.90;;;;;;4975261;28;20023;-69
2023/01/14 11:50:14;;;;;;;57.65;11.02;;;6.00;99.90;;;;;;4974843;28;20050;-70
2023/01/14 11:52:40;;;;;;;61.28;11.77;;;6.00;99.90;;;;;;4974578;28;20086;-70
2023/01/14 11:55:15;;;;;;;48.92;11.02;;;6.00;99.90;;;;;;4974676;28;20034;-69
2023/01/14 11:57:42;;;;;;;57.60;13.13;;;6.00;99.90;;;;;;4974803;28;20038;-69
2023/01/14 12:00:11;;;;;;;51.30;10.48;;;6.00;99.90;;;;;;4974676;28;20038;-70
2023/01/14 12:02:41;;;;;;;62.08;12.10;;;6.00;99.90;;;;;;4968534;28;20451;-71
2023/01/14 12:05:17;;;;;;;56.60;13.88;;;6.00;99.90;;;;;;4955853;28;20379;-70
2023/01/14 12:07:48;;;;;;;46.10;11.65;;;5.90;99.90;;;;;;4969096;28;20027;-70
2023/01/14 12:10:30;;;;;;;64.43;12.02;;;6.00;99.90;;;;;;4967359;28;20488;-70
2023/01/14 12:19:21;;;;;;;57.88;13.70;;;5.90;99.90;;;;;;4974686;28;20082;-70
2023/01/14 12:21:51;;;;;;;75.38;14.90;;;5.90;99.90;;;;;;4964160;28;20035;-70
2023/01/14 12:24:29;;;;;;;54.65;13.80;;;5.90;99.90;;;;;;4957018;28;20042;-70
2023/01/14 12:26:56;;;;;;;65.10;14.45;;;5.90;99.90;;;;;;4955753;28;20079;-71
2023/01/14 12:29:29;;;;;;;52.28;12.52;;;5.80;99.90;;;;;;4969329;28;20043;-71
2023/01/14 12:32:05;;;;;;;;;;;5.90;99.90;;;;;;4963895;28;20035;-71
2023/01/14 12:34:44;;;;;;;52.75;11.57;;;5.80;99.90;;;;;;4973775;28;19960;-70
2023/01/14 12:37:23;;;;;;;50.72;12.05;;;5.80;99.90;;;;;;4974650;28;20027;-71
2023/01/14 12:45:51;;;;;;;64.10;13.32;;;5.80;99.90;;;;;;4974543;28;20042;-70
2023/01/14 12:48:20;;;;;;;46.75;13.68;;;5.80;99.90;;;;;;4974132;28;20023;-70
2023/01/14 12:50:55;;;;;;;49.10;10.23;;;5.70;99.90;;;;;;4974059;28;20038;-70
2023/01/14 12:53:45;;;;;;;57.40;11.30;;;5.70;99.90;;;;;;4974274;28;20029;-70
2023/01/14 12:56:28;;;;;;;52.30;10.90;;;5.70;99.90;;;;;;4974115;28;20113;-71
2023/01/14 12:59:01;;;;;;;45.10;10.20;;;5.70;99.90;;;;;;4974365;28;20031;-70
2023/01/14 13:01:32;;;;;;;37.22;9.10;;;5.70;99.90;;;;;;4974126;28;20030;-70
2023/01/14 13:04:02;;;;;;;44.47;9.20;;;5.70;99.90;;;;;;4974775;28;20391;-70
2023/01/14 13:06:33;;;;;;;58.55;9.20;;;5.70;99.90;;;;;;4975126;28;20027;-70
2023/01/14 13:09:03;;;;;;;57.78;8.88;;;5.70;99.90;;;;;;4977808;28;20070;-70
2023/01/14 13:11:40;;;;;;;50.35;8.73;;;5.70;99.90;;;;;;4977754;28;20030;-70
2023/01/14 13:14:22;;;;;;;43.90;9.73;;;5.70;99.90;;;;;;4978048;28;20027;-70
2023/01/14 13:16:48;;;;;;;40.40;7.43;;;5.70;99.90;;;;;;4977763;28;20046;-71
2023/01/14 13:19:26;;;;;;;38.15;8.63;;;5.70;99.90;;;;;;4977656;28;20410;-70
2023/01/14 13:21:56;;;;;;;43.25;7.72;;;5.70;99.90;;;;;;4977892;28;20035;-70
2023/01/14 13:24:36;;;;;;;41.63;7.75;;;5.80;99.90;;;;;;4977786;28;20077;-70
2023/01/14 13:27:33;;;;;;;30.92;6.90;;;5.80;99.90;;;;;;4978393;28;20031;-70
2023/01/14 13:30:17;;;;;;;27.40;6.97;;;5.80;99.90;;;;;;4976409;28;20027;-70
2023/01/14 13:33:00;;;;;;;37.40;7.03;;;5.70;99.90;;;;;;4977675;28;20026;-70
2023/01/14 13:35:30;;;;;;;36.38;6.82;;;5.70;99.90;;;;;;4976325;28;20034;-70
2023/01/14 13:37:58;;;;;;;32.63;6.18;;;5.80;99.90;;;;;;4975537;28;20041;-70
2023/01/14 13:40:36;;;;;;;28.40;5.50;;;5.80;99.90;;;;;;4977504;28;20031;-70
2023/01/14 13:43:17;;;;;;;44.42;6.28;;;5.80;99.90;;;;;;4963672;28;20027;-70